Time;durP1;ratioP1;P1;durP2;ratioP2;P2;SDS_P1;SDS_P2;PMS_P1;PMS_P2;Temp;Humidity;BMP_temperature;BMP_pressure;BME280_temperature;BME280_humidity;BME280_pressure;Samples;Min_cycle;Max_cycle;Signal;HPM_P1;HPM_P2
2021/03/29 00:00:01;;;;;;;2.15;1.92;;;;;;;19.32;44.10;101799.87;;;;-50
2021/03/29 00:03:01;;;;;;;2.07;1.87;;;;;;;19.31;44.05;101798.44;;;;-51
2021/03/29 00:06:01;;;;;;;2.39;2.18;;;;;;;19.29;44.09;101804.31;;;;-50
2021/03/29 00:09:01;;;;;;;2.19;1.99;;;;;;;19.28;44.13;101804.92;;;;-51
2021/03/29 00:12:01;;;;;;;2.28;1.92;;;;;;;19.26;44.10;101808.88;;;;-51
2021/03/29 00:15:01;;;;;;;2.03;1.83;;;;;;;19.25;44.07;101808.52;;;;-51
2021/03/29 00:18:01;;;;;;;2.55;1.87;;;;;;;19.24;44.09;101810.77;;;;-51
2021/03/29 00:21:01;;;;;;;2.25;2.01;;;;;;;19.23;44.10;101806.41;;;;-51
2021/03/29 00:24:01;;;;;;;2.05;1.85;;;;;;;19.22;44.11;101810.14;;;;-51
2021/03/29 00:27:01;;;;;;;2.46;2.03;;;;;;;19.21;44.09;101810.98;;;;-51
2021/03/29 00:30:01;;;;;;;2.01;1.83;;;;;;;19.19;44.15;101808.49;;;;-51
2021/03/29 00:33:01;;;;;;;2.22;2.02;;;;;;;19.18;44.10;101811.41;;;;-52
2021/03/29 00:36:01;;;;;;;1.98;1.83;;;;;;;19.17;44.09;101811.85;;;;-51
2021/03/29 00:39:01;;;;;;;2.32;2.11;;;;;;;19.16;44.15;101812.97;;;;-51
2021/03/29 00:42:01;;;;;;;2.21;2.00;;;;;;;19.14;44.18;101812.52;;;;-51
2021/03/29 00:45:01;;;;;;;2.31;1.96;;;;;;;19.13;44.16;101813.03;;;;-50
2021/03/29 00:48:01;;;;;;;2.29;2.09;;;;;;;19.13;44.13;101816.28;;;;-51
2021/03/29 00:51:01;;;;;;;2.23;2.00;;;;;;;19.12;44.16;101814.55;;;;-51
2021/03/29 00:54:02;;;;;;;2.09;1.93;;;;;;;19.10;44.16;101816.69;;;;-51
2021/03/29 00:57:01;;;;;;;2.20;2.00;;;;;;;19.10;44.15;101816.84;;;;-52
2021/03/29 01:00:01;;;;;;;2.29;2.09;;;;;;;19.08;44.18;101822.08;;;;-51
2021/03/29 01:03:01;;;;;;;2.57;2.03;;;;;;;19.07;44.14;101821.42;;;;-52
2021/03/29 01:06:01;;;;;;;2.30;2.10;;;;;;;19.06;44.19;101825.11;;;;-51
2021/03/29 01:09:01;;;;;;;2.26;2.06;;;;;;;19.05;44.17;101822.90;;;;-52
2021/03/29 01:12:01;;;;;;;2.41;2.21;;;;;;;19.05;44.16;101821.64;;;;-51
2021/03/29 01:15:01;;;;;;;2.27;2.01;;;;;;;19.03;44.19;101822.51;;;;-51
2021/03/29 01:18:01;;;;;;;2.32;2.06;;;;;;;19.03;44.16;101828.04;;;;-52
2021/03/29 01:21:01;;;;;;;3.61;2.19;;;;;;;19.01;44.17;101821.52;;;;-51
2021/03/29 01:24:01;;;;;;;2.16;1.89;;;;;;;19.00;44.19;101820.36;;;;-51
2021/03/29 01:27:01;;;;;;;2.31;2.10;;;;;;;18.98;44.19;101823.97;;;;-51
2021/03/29 01:30:01;;;;;;;3.41;2.10;;;;;;;18.97;44.15;101828.10;;;;-51
2021/03/29 01:33:01;;;;;;;2.30;2.09;;;;;;;18.96;44.15;101829.43;;;;-51
2021/03/29 01:36:01;;;;;;;2.47;2.11;;;;;;;18.95;44.15;101831.78;;;;-50
2021/03/29 01:39:01;;;;;;;2.65;2.15;;;;;;;18.95;44.16;101830.80;;;;-51
2021/03/29 01:42:01;;;;;;;2.19;1.99;;;;;;;18.94;44.17;101829.28;;;;-51
2021/03/29 01:45:01;;;;;;;2.45;2.25;;;;;;;18.93;44.19;101831.30;;;;-51
2021/03/29 01:48:01;;;;;;;2.45;2.00;;;;;;;18.92;44.17;101829.55;;;;-51
2021/03/29 01:51:01;;;;;;;2.61;2.02;;;;;;;18.92;44.18;101831.57;;;;-51
2021/03/29 01:54:01;;;;;;;2.29;2.09;;;;;;;18.91;44.17;101832.20;;;;-52
2021/03/29 01:57:01;;;;;;;2.28;2.08;;;;;;;18.90;44.17;101830.22;;;;-51
2021/03/29 02:00:01;;;;;;;3.05;1.94;;;;;;;18.89;44.17;101832.96;;;;-51
2021/03/29 02:03:01;;;;;;;2.46;2.26;;;;;;;18.88;44.16;101836.00;;;;-51
2021/03/29 02:06:01;;;;;;;2.57;2.19;;;;;;;18.87;44.18;101835.34;;;;-51
2021/03/29 02:09:01;;;;;;;2.19;1.99;;;;;;;18.87;44.16;101837.69;;;;-51
2021/03/29 02:12:01;;;;;;;2.36;2.08;;;;;;;18.85;44.15;101835.36;;;;-51
2021/03/29 02:15:01;;;;;;;2.20;2.00;;;;;;;18.84;44.13;101839.48;;;;-50
2021/03/29 02:18:01;;;;;;;2.33;2.11;;;;;;;18.84;44.15;101837.83;;;;-51
2021/03/29 02:21:01;;;;;;;2.55;2.19;;;;;;;18.83;44.16;101836.27;;;;-50
2021/03/29 02:24:01;;;;;;;2.64;2.29;;;;;;;18.82;44.18;101833.74;;;;-52
2021/03/29 02:27:01;;;;;;;2.51;2.09;;;;;;;18.82;44.14;101831.10;;;;-52
2021/03/29 02:30:01;;;;;;;2.20;2.00;;;;;;;18.80;44.16;101824.33;;;;-50
2021/03/29 02:33:01;;;;;;;2.99;2.15;;;;;;;18.80;44.18;101828.44;;;;-51
2021/03/29 02:36:01;;;;;;;2.66;2.17;;;;;;;18.78;44.16;101824.27;;;;-50
2021/03/29 02:39:01;;;;;;;2.17;1.97;;;;;;;18.78;44.15;101828.22;;;;-51
2021/03/29 02:42:01;;;;;;;2.58;2.17;;;;;;;18.77;44.18;101830.13;;;;-51
2021/03/29 02:45:01;;;;;;;2.28;2.08;;;;;;;18.76;44.16;101835.30;;;;-51
2021/03/29 02:48:01;;;;;;;2.32;2.12;;;;;;;18.75;44.14;101837.69;;;;-51
2021/03/29 02:51:01;;;;;;;2.33;2.06;;;;;;;18.75;44.14;101843.70;;;;-51
2021/03/29 02:54:01;;;;;;;2.06;1.86;;;;;;;18.74;44.16;101837.63;;;;-51
2021/03/29 02:57:01;;;;;;;2.12;1.92;;;;;;;18.74;44.16;101841.98;;;;-51
2021/03/29 03:00:01;;;;;;;2.27;2.04;;;;;;;18.73;44.16;101836.64;;;;-52
2021/03/29 03:03:01;;;;;;;2.33;2.13;;;;;;;18.72;44.17;101838.17;;;;-50
2021/03/29 03:06:01;;;;;;;2.21;2.01;;;;;;;18.71;44.18;101837.55;;;;-51
2021/03/29 03:09:04;;;;;;;2.37;2.04;;;;;;;18.70;44.16;101836.57;;;;-51
2021/03/29 03:12:01;;;;;;;2.14;1.94;;;;;;;18.70;44.16;101840.88;;;;-54
2021/03/29 03:15:01;;;;;;;2.33;2.13;;;;;;;18.69;44.15;101839.77;;;;-54
2021/03/29 03:18:01;;;;;;;2.43;2.07;;;;;;;18.68;44.17;101839.84;;;;-54
2021/03/29 03:21:01;;;;;;;2.24;2.02;;;;;;;18.67;44.18;101839.95;;;;-54
2021/03/29 03:24:01;;;;;;;2.27;2.00;;;;;;;18.67;44.16;101843.36;;;;-54
2021/03/29 03:27:01;;;;;;;2.13;1.97;;;;;;;18.66;44.18;101844.73;;;;-54
2021/03/29 03:30:01;;;;;;;2.26;2.05;;;;;;;18.65;44.19;101841.83;;;;-54
2021/03/29 03:33:01;;;;;;;2.30;2.10;;;;;;;18.64;44.17;101839.30;;;;-54
2021/03/29 03:36:01;;;;;;;2.38;2.10;;;;;;;18.63;44.15;101832.75;;;;-54
2021/03/29 03:39:02;;;;;;;2.43;2.09;;;;;;;18.63;44.20;101836.66;;;;-54
2021/03/29 03:42:01;;;;;;;2.29;2.09;;;;;;;18.61;44.21;101838.22;;;;-54
2021/03/29 03:45:01;;;;;;;2.82;2.12;;;;;;;18.61;44.18;101838.45;;;;-54
2021/03/29 03:48:01;;;;;;;2.79;2.18;;;;;;;18.61;44.19;101842.11;;;;-53
2021/03/29 03:51:01;;;;;;;2.57;2.14;;;;;;;18.60;44.16;101841.28;;;;-54
2021/03/29 03:54:01;;;;;;;2.21;2.01;;;;;;;18.60;44.20;101844.12;;;;-54
2021/03/29 03:57:01;;;;;;;2.09;1.91;;;;;;;18.59;44.13;101845.05;;;;-65
2021/03/29 04:00:01;;;;;;;2.47;2.27;;;;;;;18.58;44.17;101848.36;;;;-62
2021/03/29 04:03:01;;;;;;;2.16;1.96;;;;;;;18.57;44.19;101842.42;;;;-64
2021/03/29 04:06:02;;;;;;;2.02;1.85;;;;;;;18.57;44.17;101844.61;;;;-63
2021/03/29 04:09:01;;;;;;;2.20;2.00;;;;;;;18.56;44.19;101847.56;;;;-65
2021/03/29 04:12:05;;;;;;;2.27;2.03;;;;;;;18.56;44.19;101845.69;;;;-63
2021/03/29 04:15:01;;;;;;;2.14;1.94;;;;;;;18.56;44.15;101845.05;;;;-64
2021/03/29 04:18:01;;;;;;;2.30;2.10;;;;;;;18.55;44.18;101849.42;;;;-66
2021/03/29 04:21:01;;;;;;;2.35;2.09;;;;;;;18.54;44.16;101851.31;;;;-63
2021/03/29 04:24:01;;;;;;;2.09;1.89;;;;;;;18.54;44.21;101848.80;;;;-65
2021/03/29 04:27:01;;;;;;;2.10;1.95;;;;;;;18.54;44.17;101854.23;;;;-64
2021/03/29 04:30:01;;;;;;;2.22;1.91;;;;;;;18.53;44.19;101855.97;;;;-66
2021/03/29 04:33:01;;;;;;;2.13;1.93;;;;;;;18.52;44.18;101855.62;;;;-56
2021/03/29 04:36:01;;;;;;;13.85;3.30;;;;;;;18.26;42.10;101852.89;;;;-53
2021/03/29 04:39:01;;;;;;;9.17;3.21;;;;;;;18.09;41.77;101854.75;;;;-58
2021/03/29 04:42:01;;;;;;;6.05;3.29;;;;;;;17.90;41.65;101852.81;;;;-61
2021/03/29 04:45:01;;;;;;;5.91;3.73;;;;;;;17.80;41.43;101861.65;;;;-63
2021/03/29 04:48:01;;;;;;;5.01;3.51;;;;;;;17.66;41.42;101864.02;;;;-59
2021/03/29 04:51:01;;;;;;;5.35;3.70;;;;;;;17.57;41.38;101865.78;;;;-56
2021/03/29 04:54:01;;;;;;;5.51;3.53;;;;;;;17.49;41.34;101868.31;;;;-62
2021/03/29 04:57:01;;;;;;;5.75;3.57;;;;;;;17.59;41.51;101865.38;;;;-58
2021/03/29 05:00:01;;;;;;;5.92;3.25;;;;;;;17.72;41.74;101869.67;;;;-58
2021/03/29 05:03:01;;;;;;;5.41;3.16;;;;;;;17.80;42.12;101868.55;;;;-58
2021/03/29 05:06:01;;;;;;;5.29;3.25;;;;;;;17.86;42.40;101868.23;;;;-57
2021/03/29 05:09:01;;;;;;;3.83;2.89;;;;;;;17.90;42.40;101869.36;;;;-58
2021/03/29 05:12:07;;;;;;;5.11;2.92;;;;;;;17.94;42.55;101872.16;;;;-58
2021/03/29 05:15:01;;;;;;;5.23;3.22;;;;;;;17.97;42.48;101875.70;;;;-51
2021/03/29 05:18:01;;;;;;;3.45;2.95;;;;;;;18.01;42.57;101881.40;;;;-50
2021/03/29 05:21:01;;;;;;;4.47;2.80;;;;;;;18.04;42.60;101887.13;;;;-52
2021/03/29 05:24:01;;;;;;;3.65;2.69;;;;;;;18.06;42.73;101890.44;;;;-51
2021/03/29 05:27:01;;;;;;;3.99;2.81;;;;;;;18.08;42.74;101889.88;;;;-51
2021/03/29 05:30:01;;;;;;;6.14;2.80;;;;;;;18.11;42.82;101893.94;;;;-50
2021/03/29 05:33:01;;;;;;;4.39;2.83;;;;;;;18.14;42.81;101895.84;;;;-51
2021/03/29 05:36:01;;;;;;;4.13;2.69;;;;;;;18.17;42.95;101901.45;;;;-55
2021/03/29 05:39:01;;;;;;;3.79;2.71;;;;;;;18.20;43.00;101908.63;;;;-55
2021/03/29 05:42:01;;;;;;;4.40;2.72;;;;;;;18.25;43.22;101912.36;;;;-60
2021/03/29 05:45:01;;;;;;;4.81;2.97;;;;;;;18.31;43.28;101917.75;;;;-57
2021/03/29 05:48:01;;;;;;;4.42;2.77;;;;;;;18.36;43.24;101922.95;;;;-57
2021/03/29 05:51:01;;;;;;;5.51;2.61;;;;;;;18.40;43.16;101928.05;;;;-57
2021/03/29 05:54:01;;;;;;;3.97;2.72;;;;;;;18.45;43.02;101926.61;;;;-53
2021/03/29 05:57:01;;;;;;;3.43;2.65;;;;;;;18.50;42.97;101934.63;;;;-53
2021/03/29 06:00:01;;;;;;;3.64;2.75;;;;;;;18.54;42.99;101937.30;;;;-53
2021/03/29 06:03:01;;;;;;;2.99;2.37;;;;;;;18.58;43.45;101940.28;;;;-53
2021/03/29 06:06:01;;;;;;;4.05;2.80;;;;;;;18.62;43.19;101942.69;;;;-52
2021/03/29 06:09:01;;;;;;;3.60;2.46;;;;;;;18.64;43.27;101942.67;;;;-52
2021/03/29 06:12:01;;;;;;;4.69;2.57;;;;;;;18.67;43.45;101947.95;;;;-52
2021/03/29 06:15:01;;;;;;;3.83;2.45;;;;;;;18.69;43.31;101951.84;;;;-52
2021/03/29 06:18:01;;;;;;;3.80;2.39;;;;;;;18.71;43.48;101955.64;;;;-52
2021/03/29 06:21:01;;;;;;;3.99;2.35;;;;;;;18.73;43.37;101961.64;;;;-53
2021/03/29 06:24:01;;;;;;;3.63;2.38;;;;;;;18.73;43.38;101963.19;;;;-52
2021/03/29 06:27:01;;;;;;;2.47;2.22;;;;;;;18.75;43.43;101964.47;;;;-52
2021/03/29 06:30:01;;;;;;;3.37;2.35;;;;;;;18.76;43.30;101964.52;;;;-53
2021/03/29 06:33:02;;;;;;;3.43;2.49;;;;;;;18.76;43.49;101965.98;;;;-53
2021/03/29 06:36:01;;;;;;;3.34;2.53;;;;;;;18.77;43.43;101961.94;;;;-56
2021/03/29 06:39:01;;;;;;;3.72;2.30;;;;;;;18.77;43.39;101961.63;;;;-55
2021/03/29 06:42:01;;;;;;;3.42;2.41;;;;;;;18.78;43.42;101961.87;;;;-56
2021/03/29 06:45:01;;;;;;;2.77;2.30;;;;;;;18.78;43.53;101961.05;;;;-56
2021/03/29 06:48:03;;;;;;;2.71;2.15;;;;;;;18.78;43.45;101967.59;;;;-56
2021/03/29 06:51:01;;;;;;;2.91;2.29;;;;;;;18.80;43.46;101970.90;;;;-56
2021/03/29 06:54:04;;;;;;;2.73;2.27;;;;;;;18.79;43.37;101967.88;;;;-56
2021/03/29 06:57:01;;;;;;;2.84;2.23;;;;;;;18.80;43.45;101974.43;;;;-56
2021/03/29 07:00:01;;;;;;;2.99;2.29;;;;;;;18.79;43.31;101976.73;;;;-56
2021/03/29 07:03:01;;;;;;;2.79;2.15;;;;;;;18.80;43.37;101981.53;;;;-54
2021/03/29 07:06:01;;;;;;;2.69;2.27;;;;;;;18.79;43.35;101986.81;;;;-56
2021/03/29 07:09:06;;;;;;;2.59;2.07;;;;;;;18.80;43.41;101988.84;;;;-53
2021/03/29 07:12:01;;;;;;;2.47;2.27;;;;;;;18.79;43.33;101989.90;;;;-53
2021/03/29 07:15:01;;;;;;;2.95;2.27;;;;;;;18.79;43.35;101995.42;;;;-57
2021/03/29 07:18:01;;;;;;;2.73;2.37;;;;;;;18.80;43.30;101996.00;;;;-57
2021/03/29 07:21:01;;;;;;;3.64;2.30;;;;;;;18.80;43.58;101996.52;;;;-55
2021/03/29 07:24:01;;;;;;;3.38;2.47;;;;;;;18.76;43.42;101998.31;;;;-51
2021/03/29 07:27:01;;;;;;;7.17;2.69;;;;;;;18.80;43.91;101997.75;;;;-61
2021/03/29 07:30:01;;;;;;;7.08;2.86;;;;;;;18.84;43.80;101999.55;;;;-56
2021/03/29 07:33:02;;;;;;;10.67;2.68;;;;;;;18.87;44.17;102002.84;;;;-53
2021/03/29 07:36:01;;;;;;;6.19;2.43;;;;;;;18.90;44.04;102008.77;;;;-56
2021/03/29 07:39:01;;;;;;;8.39;2.59;;;;;;;18.91;44.02;102005.73;;;;-56
2021/03/29 07:42:01;;;;;;;4.77;2.56;;;;;;;18.92;43.91;102010.55;;;;-56
2021/03/29 07:45:01;;;;;;;5.59;2.38;;;;;;;18.92;43.56;102013.31;;;;-55
2021/03/29 07:48:01;;;;;;;5.81;2.49;;;;;;;18.94;43.62;102008.66;;;;-56
2021/03/29 07:51:01;;;;;;;4.41;2.51;;;;;;;18.97;43.54;102009.68;;;;-55
2021/03/29 07:54:02;;;;;;;3.51;2.05;;;;;;;19.00;43.49;102009.44;;;;-55
2021/03/29 07:57:01;;;;;;;3.89;2.13;;;;;;;19.04;43.76;102010.78;;;;-61
2021/03/29 08:00:01;;;;;;;4.55;2.20;;;;;;;19.06;43.56;102011.02;;;;-60
2021/03/29 08:03:01;;;;;;;6.07;2.42;;;;;;;19.09;43.66;102016.17;;;;-59
2021/03/29 08:06:01;;;;;;;4.41;2.40;;;;;;;19.13;43.62;102020.25;;;;-60
2021/03/29 08:09:01;;;;;;;4.04;2.31;;;;;;;19.15;43.71;102025.80;;;;-61
2021/03/29 08:12:02;;;;;;;3.34;2.31;;;;;;;19.19;43.73;102025.00;;;;-62
2021/03/29 08:15:01;;;;;;;3.35;2.38;;;;;;;19.23;43.72;102023.34;;;;-59
2021/03/29 08:18:01;;;;;;;2.71;2.23;;;;;;;19.25;43.70;102025.61;;;;-56
2021/03/29 08:21:01;;;;;;;3.03;2.23;;;;;;;19.28;43.68;102026.86;;;;-56
2021/03/29 08:24:01;;;;;;;3.21;2.24;;;;;;;19.30;43.71;102026.23;;;;-56
2021/03/29 08:27:01;;;;;;;2.65;2.19;;;;;;;19.33;43.74;102026.36;;;;-57
2021/03/29 08:30:01;;;;;;;4.57;2.17;;;;;;;19.35;43.81;102025.28;;;;-52
2021/03/29 08:33:01;;;;;;;4.90;2.27;;;;;;;19.40;44.22;102029.28;;;;-54
2021/03/29 08:36:01;;;;;;;3.75;2.07;;;;;;;19.44;44.25;102029.95;;;;-54
2021/03/29 08:39:02;;;;;;;3.29;2.35;;;;;;;19.47;44.25;102022.75;;;;-52
2021/03/29 08:42:01;;;;;;;3.58;2.17;;;;;;;19.51;44.20;102022.59;;;;-58
2021/03/29 08:45:01;;;;;;;3.51;2.32;;;;;;;19.54;44.15;102019.05;;;;-56
2021/03/29 08:48:01;;;;;;;3.61;2.13;;;;;;;19.58;44.62;102019.33;;;;-59
2021/03/29 08:51:01;;;;;;;3.12;2.01;;;;;;;19.63;44.85;102023.20;;;;-48
2021/03/29 08:54:01;;;;;;;3.31;2.26;;;;;;;19.64;44.40;102023.59;;;;-53
2021/03/29 08:57:01;;;;;;;6.39;2.36;;;;;;;19.68;44.43;102021.59;;;;-58
2021/03/29 09:00:01;;;;;;;3.89;2.25;;;;;;;19.67;43.63;102018.25;;;;-59
2021/03/29 09:03:01;;;;;;;5.87;2.53;;;;;;;19.68;43.57;102021.59;;;;-57
2021/03/29 09:06:01;;;;;;;4.43;2.44;;;;;;;19.67;43.66;102021.51;;;;-58
2021/03/29 09:09:01;;;;;;;4.26;2.50;;;;;;;19.68;43.65;102021.68;;;;-56
2021/03/29 09:12:01;;;;;;;3.77;2.33;;;;;;;19.69;43.25;102024.78;;;;-53
2021/03/29 09:15:03;;;;;;;4.74;2.58;;;;;;;19.70;43.35;102029.39;;;;-53
2021/03/29 09:18:01;;;;;;;3.51;2.43;;;;;;;19.70;43.34;102031.94;;;;-50
2021/03/29 09:21:01;;;;;;;3.79;2.47;;;;;;;19.72;43.59;102029.47;;;;-58
2021/03/29 09:24:01;;;;;;;4.18;2.57;;;;;;;19.74;43.37;102030.03;;;;-52
2021/03/29 09:27:02;;;;;;;3.84;2.65;;;;;;;19.75;43.63;102020.86;;;;-52
2021/03/29 09:30:01;;;;;;;3.93;2.73;;;;;;;19.76;43.33;102023.34;;;;-53
2021/03/29 09:33:01;;;;;;;4.54;2.43;;;;;;;19.78;43.83;102023.56;;;;-54
2021/03/29 09:36:01;;;;;;;3.25;2.60;;;;;;;19.79;43.42;102024.72;;;;-54
2021/03/29 09:39:03;;;;;;;3.29;2.53;;;;;;;19.81;43.97;102029.33;;;;-54
2021/03/29 09:42:01;;;;;;;4.08;2.84;;;;;;;19.81;43.42;102027.30;;;;-58
2021/03/29 09:45:01;;;;;;;3.29;2.77;;;;;;;19.82;43.48;102027.35;;;;-58
2021/03/29 09:48:01;;;;;;;3.87;2.74;;;;;;;19.83;43.13;102024.75;;;;-52
2021/03/29 09:51:01;;;;;;;3.19;2.45;;;;;;;19.85;43.50;102022.86;;;;-57
2021/03/29 09:54:01;;;;;;;4.14;2.61;;;;;;;19.85;43.82;102020.43;;;;-59
2021/03/29 09:57:01;;;;;;;4.47;2.78;;;;;;;19.88;44.19;102019.27;;;;-54
2021/03/29 10:00:01;;;;;;;3.67;2.71;;;;;;;19.87;43.84;102014.63;;;;-52
2021/03/29 10:03:01;;;;;;;2.94;2.59;;;;;;;19.89;43.91;102015.83;;;;-56
2021/03/29 10:06:01;;;;;;;3.92;2.57;;;;;;;19.89;43.34;102011.77;;;;-50
2021/03/29 10:09:01;;;;;;;3.53;2.69;;;;;;;19.91;43.58;102009.62;;;;-61
2021/03/29 10:12:01;;;;;;;3.86;2.65;;;;;;;19.92;43.79;102009.87;;;;-61
2021/03/29 10:15:01;;;;;;;5.01;2.71;;;;;;;19.94;43.56;102009.94;;;;-56
2021/03/29 10:18:01;;;;;;;3.41;2.48;;;;;;;19.94;43.80;102001.47;;;;-53
2021/03/29 10:21:01;;;;;;;3.23;2.76;;;;;;;19.96;43.72;102004.13;;;;-51
2021/03/29 10:24:01;;;;;;;3.45;2.49;;;;;;;19.95;43.56;101999.81;;;;-53
2021/03/29 10:27:01;;;;;;;2.69;2.35;;;;;;;19.95;43.29;101997.94;;;;-53
2021/03/29 10:30:01;;;;;;;3.03;2.31;;;;;;;19.96;43.27;101997.70;;;;-53
2021/03/29 10:33:01;;;;;;;3.17;2.33;;;;;;;19.97;43.36;101995.31;;;;-52
2021/03/29 10:36:01;;;;;;;3.09;2.40;;;;;;;19.96;42.74;101992.05;;;;-51
2021/03/29 10:39:01;;;;;;;3.85;2.25;;;;;;;19.98;42.87;101992.23;;;;-53
2021/03/29 10:42:01;;;;;;;3.54;2.58;;;;;;;19.99;43.32;101992.45;;;;-54
2021/03/29 10:45:01;;;;;;;4.70;2.32;;;;;;;20.00;43.05;101986.02;;;;-54
2021/03/29 10:48:01;;;;;;;3.73;2.32;;;;;;;20.02;43.19;101989.34;;;;-54
2021/03/29 10:51:01;;;;;;;3.61;2.23;;;;;;;20.02;43.00;101989.17;;;;-51
2021/03/29 10:54:01;;;;;;;2.93;2.21;;;;;;;20.03;43.05;101992.48;;;;-51
2021/03/29 10:57:01;;;;;;;2.57;2.24;;;;;;;20.03;43.12;101987.03;;;;-58
2021/03/29 11:00:01;;;;;;;3.17;2.21;;;;;;;20.06;43.35;101990.11;;;;-48
2021/03/29 11:03:01;;;;;;;5.93;2.59;;;;;;;20.08;43.60;101985.61;;;;-54
2021/03/29 11:06:01;;;;;;;5.36;2.41;;;;;;;20.06;43.17;101982.63;;;;-60
2021/03/29 11:09:01;;;;;;;3.75;2.20;;;;;;;20.06;42.93;101979.94;;;;-59
2021/03/29 11:12:01;;;;;;;4.59;2.21;;;;;;;20.05;42.99;101973.00;;;;-55
2021/03/29 11:15:01;;;;;;;2.69;2.22;;;;;;;20.04;43.09;101970.03;;;;-59
2021/03/29 11:18:04;;;;;;;4.17;2.13;;;;;;;20.04;42.95;101971.34;;;;-58
2021/03/29 11:21:01;;;;;;;2.31;2.10;;;;;;;20.04;43.06;101966.78;;;;-58
2021/03/29 11:24:01;;;;;;;3.31;2.25;;;;;;;20.05;43.14;101963.08;;;;-58
2021/03/29 11:27:01;;;;;;;5.65;2.43;;;;;;;20.05;43.03;101956.16;;;;-55
2021/03/29 11:30:02;;;;;;;2.50;1.99;;;;;;;20.04;42.99;101953.42;;;;-60
2021/03/29 11:33:01;;;;;;;3.02;2.30;;;;;;;20.05;43.09;101952.24;;;;-56
2021/03/29 11:36:01;;;;;;;3.65;2.25;;;;;;;20.05;42.97;101955.02;;;;-58
2021/03/29 11:39:01;;;;;;;2.73;2.29;;;;;;;20.05;43.10;101951.27;;;;-54
2021/03/29 11:42:01;;;;;;;2.63;2.06;;;;;;;20.05;42.98;101953.62;;;;-55
2021/03/29 11:45:01;;;;;;;3.09;2.17;;;;;;;20.05;43.08;101950.88;;;;-55
2021/03/29 11:48:01;;;;;;;2.55;2.09;;;;;;;20.05;42.99;101946.80;;;;-55
2021/03/29 11:51:01;;;;;;;3.59;2.11;;;;;;;20.05;43.11;101947.53;;;;-59
2021/03/29 11:54:01;;;;;;;2.45;2.02;;;;;;;20.05;43.01;101940.20;;;;-58
2021/03/29 11:57:01;;;;;;;3.32;2.21;;;;;;;20.05;43.03;101946.31;;;;-55
2021/03/29 12:00:03;;;;;;;2.35;2.02;;;;;;;20.06;43.00;101943.23;;;;-60
2021/03/29 12:03:09;;;;;;;3.51;1.95;;;;;;;20.05;43.01;101937.84;;;;-55
2021/03/29 12:06:04;;;;;;;2.29;1.89;;;;;;;20.06;42.97;101936.31;;;;-59
2021/03/29 12:09:07;;;;;;;2.99;1.90;;;;;;;20.07;42.92;101935.37;;;;-55
2021/03/29 12:12:04;;;;;;;2.36;2.02;;;;;;;20.06;42.92;101937.86;;;;-55
2021/03/29 12:15:01;;;;;;;2.54;2.07;;;;;;;20.06;43.00;101940.95;;;;-59
2021/03/29 12:18:01;;;;;;;5.51;2.15;;;;;;;20.09;43.38;101938.36;;;;-61
2021/03/29 12:21:01;;;;;;;4.37;2.07;;;;;;;20.11;44.11;101937.60;;;;-57
2021/03/29 12:24:01;;;;;;;3.51;2.02;;;;;;;20.12;44.04;101934.44;;;;-57
2021/03/29 12:27:01;;;;;;;4.55;2.10;;;;;;;20.14;43.98;101938.00;;;;-58
2021/03/29 12:30:04;;;;;;;2.28;1.96;;;;;;;20.15;44.21;101937.64;;;;-56
2021/03/29 12:33:01;;;;;;;2.50;2.05;;;;;;;20.18;44.32;101931.44;;;;-57
2021/03/29 12:36:01;;;;;;;4.31;2.07;;;;;;;20.20;44.21;101927.34;;;;-53
2021/03/29 12:39:05;;;;;;;4.13;1.99;;;;;;;20.22;44.01;101928.36;;;;-53
2021/03/29 12:42:03;;;;;;;2.09;1.87;;;;;;;20.23;44.23;101922.39;;;;-52
2021/03/29 12:45:02;;;;;;;1.97;1.78;;;;;;;20.26;44.20;101921.31;;;;-52
2021/03/29 12:48:01;;;;;;;6.10;1.88;;;;;;;20.27;43.95;101920.92;;;;-57
2021/03/29 12:51:01;;;;;;;4.04;2.13;;;;;;;20.28;43.86;101916.16;;;;-51
2021/03/29 12:54:01;;;;;;;4.43;1.90;;;;;;;20.27;43.85;101915.06;;;;-49
2021/03/29 12:57:01;;;;;;;3.03;2.00;;;;;;;20.28;43.95;101910.70;;;;-52
2021/03/29 13:00:01;;;;;;;2.12;1.71;;;;;;;20.29;44.10;101907.94;;;;-47
2021/03/29 13:03:01;;;;;;;2.71;1.92;;;;;;;20.31;44.51;101903.27;;;;-51
2021/03/29 13:06:11;;;;;;;2.61;1.70;;;;;;;20.30;44.37;101900.98;;;;-54
2021/03/29 13:09:05;;;;;;;3.02;1.86;;;;;;;20.30;44.23;101900.66;;;;-55
2021/03/29 13:12:01;;;;;;;3.52;1.99;;;;;;;20.31;44.11;101902.62;;;;-50
2021/03/29 13:15:01;;;;;;;1.94;1.73;;;;;;;20.35;44.44;101899.47;;;;-54
2021/03/29 13:18:01;;;;;;;2.66;1.93;;;;;;;20.35;44.11;101895.72;;;;-53
2021/03/29 13:21:01;;;;;;;2.38;1.83;;;;;;;20.35;43.78;101890.77;;;;-49
2021/03/29 13:24:01;;;;;;;2.88;1.93;;;;;;;20.36;44.22;101887.46;;;;-50
2021/03/29 13:27:01;;;;;;;2.80;1.85;;;;;;;20.39;44.32;101882.64;;;;-50
2021/03/29 13:30:01;;;;;;;1.99;1.77;;;;;;;20.41;44.38;101883.99;;;;-55
2021/03/29 13:33:02;;;;;;;6.07;1.94;;;;;;;20.41;44.14;101880.81;;;;-48
2021/03/29 13:36:01;;;;;;;3.48;1.91;;;;;;;20.42;44.08;101878.95;;;;-48
2021/03/29 13:39:01;;;;;;;4.19;1.80;;;;;;;20.41;44.32;101882.20;;;;-51
2021/03/29 13:42:01;;;;;;;2.28;1.73;;;;;;;20.42;44.10;101880.05;;;;-54
2021/03/29 13:45:01;;;;;;;4.19;2.01;;;;;;;20.42;44.24;101875.81;;;;-50
2021/03/29 13:48:01;;;;;;;2.13;1.91;;;;;;;20.44;44.16;101869.23;;;;-61
2021/03/29 13:51:01;;;;;;;3.07;1.94;;;;;;;20.45;44.39;101874.65;;;;-57
2021/03/29 13:54:07;;;;;;;2.78;1.88;;;;;;;20.43;44.29;101870.20;;;;-57
2021/03/29 13:57:01;;;;;;;2.94;1.85;;;;;;;20.44;44.25;101867.31;;;;-55
2021/03/29 14:00:01;;;;;;;2.36;1.76;;;;;;;20.44;44.01;101866.22;;;;-53
2021/03/29 14:03:03;;;;;;;3.00;1.74;;;;;;;20.47;44.28;101857.44;;;;-51
2021/03/29 14:06:01;;;;;;;2.30;1.53;;;;;;;20.46;43.98;101856.34;;;;-50
2021/03/29 14:09:01;;;;;;;4.11;1.85;;;;;;;20.44;43.52;101854.28;;;;-48
2021/03/29 14:12:01;;;;;;;3.66;1.89;;;;;;;20.42;43.48;101850.70;;;;-48
2021/03/29 14:15:01;;;;;;;1.88;1.67;;;;;;;20.41;43.49;101847.27;;;;-48
2021/03/29 14:18:02;;;;;;;3.27;1.80;;;;;;;20.41;43.43;101847.11;;;;-51
2021/03/29 14:21:01;;;;;;;2.96;1.69;;;;;;;20.39;43.44;101837.61;;;;-51
2021/03/29 14:24:01;;;;;;;1.85;1.61;;;;;;;20.38;43.42;101848.52;;;;-56
2021/03/29 14:27:01;;;;;;;3.71;1.75;;;;;;;20.37;43.43;101844.55;;;;-48
2021/03/29 14:30:01;;;;;;;1.95;1.76;;;;;;;20.36;43.38;101836.81;;;;-56
2021/03/29 14:33:02;;;;;;;3.21;1.81;;;;;;;20.35;43.44;101830.11;;;;-56
2021/03/29 14:36:06;;;;;;;2.11;1.79;;;;;;;20.35;43.30;101826.67;;;;-50
2021/03/29 14:39:12;;;;;;;3.00;1.69;;;;;;;20.34;43.23;101824.72;;;;-51
2021/03/29 14:42:17;;;;;;;1.85;1.59;;;;;;;20.34;43.29;101826.84;;;;-50
2021/03/29 14:45:01;;;;;;;2.10;1.65;;;;;;;20.34;43.32;101822.92;;;;-51
2021/03/29 14:48:02;;;;;;;2.59;1.60;;;;;;;20.34;43.35;101818.77;;;;-50
2021/03/29 14:51:01;;;;;;;2.92;1.51;;;;;;;20.34;43.37;101813.88;;;;-50
2021/03/29 14:54:02;;;;;;;1.80;1.59;;;;;;;20.34;43.33;101812.50;;;;-57
2021/03/29 14:57:01;;;;;;;2.09;1.68;;;;;;;20.34;43.35;101806.88;;;;-57
2021/03/29 15:00:03;;;;;;;3.99;1.69;;;;;;;20.32;43.26;101805.45;;;;-48
2021/03/29 15:03:04;;;;;;;1.97;1.67;;;;;;;20.33;43.33;101800.81;;;;-48
2021/03/29 15:06:21;;;;;;;2.88;1.50;;;;;;;20.33;43.28;101801.55;;;;-48
2021/03/29 15:09:01;;;;;;;4.23;1.84;;;;;;;20.30;43.92;101795.95;;;;-45
2021/03/29 15:12:01;;;;;;;5.35;2.02;;;;;;;20.28;44.61;101797.70;;;;-52
2021/03/29 15:15:01;;;;;;;5.39;1.89;;;;;;;20.27;44.88;101799.61;;;;-52
2021/03/29 15:18:01;;;;;;;2.44;1.70;;;;;;;20.26;44.64;101796.10;;;;-52
2021/03/29 15:21:01;;;;;;;2.77;1.69;;;;;;;20.26;44.74;101796.42;;;;-50
2021/03/29 15:24:01;;;;;;;4.37;1.65;;;;;;;20.26;45.03;101794.97;;;;-48
2021/03/29 15:27:01;;;;;;;2.09;1.60;;;;;;;20.25;45.09;101794.14;;;;-52
2021/03/29 15:30:01;;;;;;;2.48;1.59;;;;;;;20.25;44.89;101792.72;;;;-49
2021/03/29 15:33:01;;;;;;;12.23;2.21;;;;;;;20.25;44.89;101789.59;;;;-51
2021/03/29 15:36:01;;;;;;;5.65;2.11;;;;;;;20.25;45.32;101785.52;;;;-51
2021/03/29 15:39:01;;;;;;;6.29;1.80;;;;;;;20.28;45.53;101788.34;;;;-52
2021/03/29 15:42:01;;;;;;;6.79;1.83;;;;;;;20.32;45.48;101787.05;;;;-52
2021/03/29 15:45:01;;;;;;;3.98;1.70;;;;;;;20.35;45.35;101777.50;;;;-53
2021/03/29 15:48:01;;;;;;;3.79;1.79;;;;;;;20.39;45.63;101779.95;;;;-57
2021/03/29 15:51:01;;;;;;;2.37;1.69;;;;;;;20.41;45.28;101777.64;;;;-50
2021/03/29 15:54:01;;;;;;;3.24;1.66;;;;;;;20.41;45.07;101776.99;;;;-48
2021/03/29 15:57:02;;;;;;;2.53;1.70;;;;;;;20.42;45.46;101778.06;;;;-49
2021/03/29 16:00:01;;;;;;;5.68;1.84;;;;;;;20.44;45.60;101776.56;;;;-49
2021/03/29 16:03:07;;;;;;;2.30;1.67;;;;;;;20.44;45.67;101776.76;;;;-52
2021/03/29 16:06:01;;;;;;;3.27;1.59;;;;;;;20.45;45.43;101774.56;;;;-51
2021/03/29 16:09:01;;;;;;;2.49;1.53;;;;;;;20.47;45.46;101771.44;;;;-52
2021/03/29 16:12:01;;;;;;;3.14;1.75;;;;;;;20.47;45.40;101773.80;;;;-53
2021/03/29 16:15:01;;;;;;;3.77;1.70;;;;;;;20.47;45.33;101776.16;;;;-52
2021/03/29 16:18:01;;;;;;;4.15;1.79;;;;;;;20.47;45.04;101780.23;;;;-55
2021/03/29 16:21:01;;;;;;;2.33;1.64;;;;;;;20.48;45.21;101784.06;;;;-54
2021/03/29 16:24:01;;;;;;;2.97;1.67;;;;;;;20.47;45.25;101782.76;;;;-53
2021/03/29 16:27:01;;;;;;;3.13;1.74;;;;;;;20.49;45.26;101784.84;;;;-50
2021/03/29 16:30:01;;;;;;;2.53;1.71;;;;;;;20.49;45.12;101784.84;;;;-51
2021/03/29 16:33:01;;;;;;;2.62;1.52;;;;;;;20.49;45.22;101785.25;;;;-51
2021/03/29 16:36:01;;;;;;;2.62;1.62;;;;;;;20.49;45.29;101782.41;;;;-53
2021/03/29 16:39:01;;;;;;;1.70;1.60;;;;;;;20.49;45.22;101784.02;;;;-49
2021/03/29 16:42:01;;;;;;;2.74;1.60;;;;;;;20.50;45.26;101783.47;;;;-55